Bandeirantes, Brazil
Current Conditions -  °F | °C
As of 2:00 AM on Wednesday 22 Oct 2014 (Local Time) from SBCG Reporting Station
Clear Clear  
Wind Chill: 70°   Ceiling: Unl
Heat Index: 70°   Visibility: 6mi
Dew Point: 61°   Wind: 8mph
Humidity: 73%   Direction: 100°E
Pressure: 30"   Gusts: NA
Location:  19.92°S, 54.36°W
Report Text: SBCG 220500Z 10007KT CAVOK 21/16 Q1016
Loading
Personal Weather Stations






























Interactive Weather Map
Tropical Storm Tracking
New forecast layout! Learn more

10-Day Weather Forecast

Advertisements
Track Severe Weather on mobile